DW3648 Granada ES current weather conditions

sailwx.info

Wind from 188 at 1 knots gusting 7

Air temperature 30.0° C
Dewpoint 8.4° C

Last reported at 2018-Jul-16 14:02 UTC.
Time now 2018-Jul-16 14:37 UTC

Location: N 37°10' W 003°35'.
View on Google Maps.

See reports from other nearby stations

  
Tides and Currents Weather Stations Pressure Air Temp Water Temp Dewpoint Dewpoint Depression Visibility Wind Speed Wind Dir Waves Ship Positions
date/time (UTC)wind fromknots sea level pressurealtimeterstation pressurevisibilityair tempwater tempwave heightnotes
2018-Jul-16 14:02 188 1 gusting 7 30.0
2018-Jul-16 13:47 258 3 gusting 9 29.4
2018-Jul-16 13:32 254 3 gusting 8 29.4
2018-Jul-16 13:17 207 0 gusting 7 28.9
2018-Jul-16 13:01 325 1 gusting 8 28.3
2018-Jul-16 12:46 184 0 gusting 7 28.3
2018-Jul-16 12:31 277 2 gusting 7 27.8
2018-Jul-16 12:16 265 1 gusting 7 27.8
2018-Jul-16 12:01 308 0 gusting 6 27.2
2018-Jul-16 11:46 218 5 gusting 7 26.7
2018-Jul-16 11:31 308 4 gusting 8 26.1
2018-Jul-16 11:16 240 0 gusting 6 25.6
2018-Jul-16 11:01 258 5 gusting 8 25.0
2018-Jul-16 10:46 178 25.0
2018-Jul-16 10:31 281 1 gusting 8 24.4
2018-Jul-16 10:16 290 0 gusting 6 24.4
2018-Jul-16 10:01 247 0 gusting 6 23.3
2018-Jul-16 09:46 288 1 gusting 4 23.3
2018-Jul-16 09:31 288 1 gusting 4 23.3
2018-Jul-16 09:16 288 21.7
2018-Jul-16 09:01 170 1 gusting 5 21.1
2018-Jul-16 08:46 263 20.6
2018-Jul-16 08:31 239 20.0
2018-Jul-16 08:16 187 0 gusting 6 19.4
2018-Jul-16 08:01 284 1 gusting 6 18.9
2018-Jul-16 07:46 284 1 gusting 3 18.9
2018-Jul-16 07:31 284 18.9
2018-Jul-16 07:16 087 17.8
2018-Jul-16 07:01 087 16.7
2018-Jul-16 06:46 120 1 gusting 4 16.1
2018-Jul-16 06:31 122 15.6
2018-Jul-16 06:16 122 1 gusting 5 14.4
2018-Jul-16 06:01 121 1 gusting 6 14.4
2018-Jul-16 05:46 113 1 gusting 3 14.4
2018-Jul-16 05:31 121 2 gusting 6 14.4
2018-Jul-16 05:16 109 1 gusting 5 14.4
2018-Jul-16 05:01 114 0 gusting 6 14.4
2018-Jul-16 04:46 127 2 gusting 5 15.0
2018-Jul-16 04:31 093 2 gusting 4 15.0
2018-Jul-16 04:15 118 4 gusting 6 15.0
2018-Jul-16 04:01 102 1 gusting 5 15.6
2018-Jul-16 03:46 101 15.6
2018-Jul-16 03:30 101 15.6
2018-Jul-16 03:15 101 2 gusting 4 16.1
2018-Jul-16 03:00 346 0 gusting 4 16.1
2018-Jul-16 02:45 123 15.6
2018-Jul-16 02:30 123 15.6
2018-Jul-16 02:15 123 15.6
2018-Jul-16 02:00 123 15.6
2018-Jul-16 01:45 096 0 gusting 4 16.1
2018-Jul-16 01:30 109 1 gusting 6 16.1
2018-Jul-16 01:15 121 1 gusting 6 16.1
2018-Jul-16 01:00 126 16.7
2018-Jul-16 00:45 103 1 gusting 5 17.2
2018-Jul-16 00:30 207 17.8
2018-Jul-16 00:15 207 17.8
2018-Jul-16 00:00 207 17.8
2018-Jul-15 23:45 223 1 gusting 5 18.3
2018-Jul-15 23:30 236 18.3
2018-Jul-15 23:15 236 18.9
2018-Jul-15 23:00 281 18.9
2018-Jul-15 22:45 281 18.9
2018-Jul-15 22:30 292 19.4
2018-Jul-15 22:15 321 3 gusting 6 19.4
2018-Jul-15 22:00 270 1 gusting 6 20.0
2018-Jul-15 21:45 271 20.0
2018-Jul-15 21:30 271 20.6
2018-Jul-15 21:15 271 0 gusting 5 20.6
2018-Jul-15 21:00 271 20.6
2018-Jul-15 20:45 271 21.1
2018-Jul-15 20:30 245 0 gusting 4 21.7
2018-Jul-15 20:15 265 1 gusting 5 21.7
2018-Jul-15 20:00 277 1 gusting 6 22.2
2018-Jul-15 19:45 277 1 gusting 5 22.8
2018-Jul-15 19:30 261 6 gusting 10 22.8
2018-Jul-15 19:15 221 4 gusting 10 23.9
2018-Jul-15 19:00 273 4 gusting 10 25.0
2018-Jul-15 18:45 143 1 gusting 6 25.6
2018-Jul-15 18:30 248 5 gusting 13 25.6
2018-Jul-15 18:15 247 3 gusting 12 26.1
2018-Jul-15 18:00 264 6 gusting 13 26.7
2018-Jul-15 17:45 286 7 gusting 13 26.7
2018-Jul-15 17:30 257 4 gusting 12 26.7
2018-Jul-15 17:15 286 6 gusting 13 26.7
2018-Jul-15 17:00 260 0 gusting 10 27.2
2018-Jul-15 16:45 239 1 gusting 12 26.7
2018-Jul-15 16:30 272 3 gusting 13 26.7
2018-Jul-15 16:15 261 7 gusting 13 27.8
2018-Jul-15 16:00 302 5 gusting 13 28.3
2018-Jul-15 15:45 257 3 gusting 15 28.9
2018-Jul-15 15:30 232 5 gusting 10 28.9
2018-Jul-15 15:15 263 6 gusting 10 28.9
2018-Jul-15 15:00 017 6 gusting 10 28.9
2018-Jul-15 14:45 327 6 gusting 13 28.9
2018-Jul-15 14:30 279 6 gusting 18 29.4
2018-Jul-15 14:15 277 4 gusting 13 29.4
2018-Jul-15 14:00 192 4 gusting 12 28.9
2018-Jul-15 13:45 284 4 gusting 13 28.9
2018-Jul-15 13:30 309 5 gusting 13 29.4
2018-Jul-15 13:14 284 2 gusting 9 29.4
2018-Jul-15 13:00 238 1 gusting 9 29.4
2018-Jul-15 12:44 167 1 gusting 9 28.9
2018-Jul-15 12:29 220 1 gusting 6 27.8
2018-Jul-15 12:14 205 27.2
2018-Jul-15 11:59 284 1 gusting 6 27.2
2018-Jul-15 11:44 250 0 gusting 6 26.7
2018-Jul-15 11:29 209 1 gusting 6 25.6
2018-Jul-15 11:14 275 3 gusting 8 25.6
2018-Jul-15 10:59 284 4 gusting 8 25.0
2018-Jul-15 10:44 174 1 gusting 7 25.0
2018-Jul-15 10:29 271 1 gusting 6 23.9
2018-Jul-15 10:14 306 3 gusting 6 23.3
2018-Jul-15 09:59 275 0 gusting 6 22.8
2018-Jul-15 09:44 271 2 gusting 6 22.8
2018-Jul-15 09:29 267 3 gusting 6 22.2
2018-Jul-15 09:14 261 2 gusting 6 21.7
2018-Jul-15 08:59 271 0 gusting 4 21.7
2018-Jul-15 08:44 234 21.1
2018-Jul-15 08:29 251 20.6
2018-Jul-15 08:14 301 0 gusting 6 20.0
2018-Jul-15 07:59 257 2 gusting 6 19.4
2018-Jul-15 07:44 234 2 gusting 4 19.4
2018-Jul-15 07:29 234 19.4
2018-Jul-15 07:14 234 18.3
2018-Jul-15 06:59 235 0 gusting 5 18.3
2018-Jul-15 06:44 282 0 gusting 4 18.3
2018-Jul-15 06:29 282 1 gusting 5 17.8
2018-Jul-15 06:14 282 2 gusting 4 17.8
2018-Jul-15 05:59 282 17.8
2018-Jul-15 05:44 281 17.8
2018-Jul-15 05:29 281 0 gusting 4 17.2
2018-Jul-15 05:14 281 17.2
2018-Jul-15 04:59 282 17.8
2018-Jul-15 04:44 281 17.8
2018-Jul-15 04:29 281 17.8
2018-Jul-15 04:14 281 17.8
2018-Jul-15 03:59 281 0 gusting 3 17.8
2018-Jul-15 03:44 281 18.3
2018-Jul-15 03:29 280 0 gusting 3 18.9
2018-Jul-15 03:14 280 18.9
2018-Jul-15 02:59 280 18.9
2018-Jul-15 02:44 280 19.4
2018-Jul-15 02:29 280 19.4
2018-Jul-15 02:14 280 19.4
2018-Jul-15 01:59 280 0 gusting 4 19.4
2018-Jul-15 01:43 281 20.0
2018-Jul-15 01:29 281 0 gusting 4 20.6
2018-Jul-15 01:13 280 20.6
2018-Jul-15 00:58 281 21.1
2018-Jul-15 00:43 286 21.1
2018-Jul-15 00:28 286 1 gusting 5 21.7
2018-Jul-15 00:13 304 1 gusting 6 21.7
2018-Jul-14 23:58 267 1 gusting 6 22.2
2018-Jul-14 23:43 292 2 gusting 6 22.2
2018-Jul-14 23:28 292 0 gusting 6 22.2
2018-Jul-14 23:13 293 23.3
2018-Jul-14 22:58 293 23.3
2018-Jul-14 22:43 293 1 gusting 5 23.9
2018-Jul-14 22:28 292 0 gusting 6 23.9
2018-Jul-14 22:13 288 1 gusting 5 24.4
2018-Jul-14 21:58 277 0 gusting 6 25.0
2018-Jul-14 21:43 309 2 gusting 6 25.6
2018-Jul-14 21:28 277 1 gusting 7 26.1
2018-Jul-14 21:13 279 3 gusting 7 26.1
2018-Jul-14 20:58 265 26.7
2018-Jul-14 20:43 288 3 gusting 7 27.2
2018-Jul-14 20:28 287 2 gusting 7 27.8
2018-Jul-14 20:13 281 3 gusting 7 28.3
2018-Jul-14 19:58 275 1 gusting 5 28.9
2018-Jul-14 19:43 209 29.4
2018-Jul-14 19:28 224 3 gusting 7 29.4
2018-Jul-14 19:13 242 5 gusting 9 30.0
2018-Jul-14 18:58 194 3 gusting 9 31.1
2018-Jul-14 18:43 211 3 gusting 11 31.7
2018-Jul-14 18:28 225 3 gusting 7 32.8
2018-Jul-14 18:13 250 2 gusting 9 32.8
2018-Jul-14 17:58 226 3 gusting 12 33.3
2018-Jul-14 17:43 269 2 gusting 9 33.3
2018-Jul-14 17:28 251 5 gusting 9 33.9
2018-Jul-14 17:13 295 4 gusting 10 33.9
2018-Jul-14 16:58 230 4 gusting 13 33.9
2018-Jul-14 16:43 269 3 gusting 13 33.9
2018-Jul-14 16:28 198 2 gusting 19 33.9
2018-Jul-14 16:13 173 1 gusting 12 33.9
2018-Jul-14 15:58 187 2 gusting 13 34.4
2018-Jul-14 15:43 234 3 gusting 9 34.4
2018-Jul-14 15:28 094 3 gusting 15 33.9
2018-Jul-14 15:13 193 4 gusting 11 33.9
2018-Jul-14 14:58 098 3 gusting 12 33.9
2018-Jul-14 14:43 112 4 gusting 13 33.3
2018-Jul-14 14:28 196 6 gusting 17 33.3
2018-Jul-14 14:13 114 4 gusting 13 33.3